sensor_id;sensor_type;location;lat;lon;timestamp;P1;durP1;ratioP1;P2;durP2;ratioP2
70416;SDS011;57839;51.332;12.410;2023-03-01T00:01:55;25.38;;;18.00;;
70416;SDS011;57839;51.332;12.410;2023-03-01T00:04:21;24.38;;;18.02;;
70416;SDS011;57839;51.332;12.410;2023-03-01T00:06:46;24.88;;;18.05;;
70416;SDS011;57839;51.332;12.410;2023-03-01T00:09:15;24.02;;;17.48;;
70416;SDS011;57839;51.332;12.410;2023-03-01T00:11:41;25.00;;;17.00;;
70416;SDS011;57839;51.332;12.410;2023-03-01T00:14:07;23.17;;;16.42;;
70416;SDS011;57839;51.332;12.410;2023-03-01T00:16:34;20.50;;;15.63;;
70416;SDS011;57839;51.332;12.410;2023-03-01T00:19:14;20.70;;;16.00;;
70416;SDS011;57839;51.332;12.410;2023-03-01T00:21:41;21.50;;;16.80;;
70416;SDS011;57839;51.332;12.410;2023-03-01T00:24:07;22.33;;;16.00;;
70416;SDS011;57839;51.332;12.410;2023-03-01T00:26:34;23.42;;;16.27;;
70416;SDS011;57839;51.332;12.410;2023-03-01T00:28:59;21.42;;;15.77;;
70416;SDS011;57839;51.332;12.410;2023-03-01T00:31:27;23.65;;;15.77;;
70416;SDS011;57839;51.332;12.410;2023-03-01T00:33:55;24.35;;;17.33;;
70416;SDS011;57839;51.332;12.410;2023-03-01T00:36:23;19.95;;;15.32;;
70416;SDS011;57839;51.332;12.410;2023-03-01T00:38:50;22.48;;;15.93;;
70416;SDS011;57839;51.332;12.410;2023-03-01T00:41:16;23.85;;;15.60;;
70416;SDS011;57839;51.332;12.410;2023-03-01T00:43:43;19.85;;;16.00;;
70416;SDS011;57839;51.332;12.410;2023-03-01T00:46:10;22.70;;;16.38;;
70416;SDS011;57839;51.332;12.410;2023-03-01T00:48:38;23.67;;;16.40;;
70416;SDS011;57839;51.332;12.410;2023-03-01T00:51:08;24.63;;;16.77;;
70416;SDS011;57839;51.332;12.410;2023-03-01T00:53:35;22.08;;;15.98;;
70416;SDS011;57839;51.332;12.410;2023-03-01T00:56:02;22.58;;;16.17;;
70416;SDS011;57839;51.332;12.410;2023-03-01T00:58:28;22.17;;;16.02;;
70416;SDS011;57839;51.332;12.410;2023-03-01T01:00:54;23.65;;;16.48;;
70416;SDS011;57839;51.332;12.410;2023-03-01T01:03:19;23.05;;;16.35;;
70416;SDS011;57839;51.332;12.410;2023-03-01T01:05:46;21.50;;;16.13;;
70416;SDS011;57839;51.332;12.410;2023-03-01T01:08:11;20.27;;;15.68;;
70416;SDS011;57839;51.332;12.410;2023-03-01T01:10:37;21.92;;;16.10;;
70416;SDS011;57839;51.332;12.410;2023-03-01T01:13:03;23.02;;;16.83;;
70416;SDS011;57839;51.332;12.410;2023-03-01T01:15:31;22.33;;;16.33;;
70416;SDS011;57839;51.332;12.410;2023-03-01T01:17:59;21.45;;;16.50;;
70416;SDS011;57839;51.332;12.410;2023-03-01T01:20:24;25.08;;;16.30;;
70416;SDS011;57839;51.332;12.410;2023-03-01T01:22:50;24.58;;;16.55;;
70416;SDS011;57839;51.332;12.410;2023-03-01T01:25:16;21.55;;;16.30;;
70416;SDS011;57839;51.332;12.410;2023-03-01T01:27:42;22.30;;;16.48;;
70416;SDS011;57839;51.332;12.410;2023-03-01T01:30:08;19.85;;;15.95;;
70416;SDS011;57839;51.332;12.410;2023-03-01T01:32:34;20.48;;;16.00;;
70416;SDS011;57839;51.332;12.410;2023-03-01T01:34:59;22.30;;;15.93;;
70416;SDS011;57839;51.332;12.410;2023-03-01T01:37:25;21.05;;;16.42;;
70416;SDS011;57839;51.332;12.410;2023-03-01T01:39:56;22.48;;;16.73;;
70416;SDS011;57839;51.332;12.410;2023-03-01T01:42:23;18.58;;;15.25;;
70416;SDS011;57839;51.332;12.410;2023-03-01T01:45:15;24.65;;;16.20;;
70416;SDS011;57839;51.332;12.410;2023-03-01T01:47:50;21.17;;;15.27;;
70416;SDS011;57839;51.332;12.410;2023-03-01T01:50:16;21.98;;;16.13;;
70416;SDS011;57839;51.332;12.410;2023-03-01T01:52:43;21.30;;;15.70;;
70416;SDS011;57839;51.332;12.410;2023-03-01T01:55:13;21.10;;;15.32;;
70416;SDS011;57839;51.332;12.410;2023-03-01T01:57:54;21.90;;;15.43;;
70416;SDS011;57839;51.332;12.410;2023-03-01T02:00:23;22.13;;;16.13;;
70416;SDS011;57839;51.332;12.410;2023-03-01T02:02:57;24.23;;;15.63;;
70416;SDS011;57839;51.332;12.410;2023-03-01T02:08:11;24.58;;;17.02;;
70416;SDS011;57839;51.332;12.410;2023-03-01T02:10:38;23.55;;;17.33;;
70416;SDS011;57839;51.332;12.410;2023-03-01T02:13:05;22.50;;;16.90;;
70416;SDS011;57839;51.332;12.410;2023-03-01T02:15:34;18.95;;;14.85;;
70416;SDS011;57839;51.332;12.410;2023-03-01T02:18:01;22.23;;;16.05;;
70416;SDS011;57839;51.332;12.410;2023-03-01T02:20:35;20.42;;;15.55;;
70416;SDS011;57839;51.332;12.410;2023-03-01T02:23:03;20.42;;;16.45;;
70416;SDS011;57839;51.332;12.410;2023-03-01T02:25:36;22.58;;;17.00;;
70416;SDS011;57839;51.332;12.410;2023-03-01T02:30:49;21.98;;;16.42;;
70416;SDS011;57839;51.332;12.410;2023-03-01T02:33:34;22.70;;;16.15;;
70416;SDS011;57839;51.332;12.410;2023-03-01T02:36:03;18.17;;;15.02;;
70416;SDS011;57839;51.332;12.410;2023-03-01T02:38:32;21.27;;;15.30;;
70416;SDS011;57839;51.332;12.410;2023-03-01T02:40:57;21.08;;;15.85;;
70416;SDS011;57839;51.332;12.410;2023-03-01T02:43:24;22.20;;;16.58;;
70416;SDS011;57839;51.332;12.410;2023-03-01T02:45:53;22.10;;;14.88;;
70416;SDS011;57839;51.332;12.410;2023-03-01T02:48:23;25.60;;;16.15;;
70416;SDS011;57839;51.332;12.410;2023-03-01T02:51:05;24.00;;;17.50;;
70416;SDS011;57839;51.332;12.410;2023-03-01T02:53:55;19.83;;;15.25;;
70416;SDS011;57839;51.332;12.410;2023-03-01T02:56:25;21.02;;;15.43;;
70416;SDS011;57839;51.332;12.410;2023-03-01T02:58:51;20.52;;;14.52;;
70416;SDS011;57839;51.332;12.410;2023-03-01T03:01:17;21.05;;;14.73;;
70416;SDS011;57839;51.332;12.410;2023-03-01T03:03:44;20.67;;;15.27;;
70416;SDS011;57839;51.332;12.410;2023-03-01T03:06:09;20.02;;;15.13;;
70416;SDS011;57839;51.332;12.410;2023-03-01T03:08:35;20.13;;;14.85;;
70416;SDS011;57839;51.332;12.410;2023-03-01T03:11:00;19.95;;;15.23;;
70416;SDS011;57839;51.332;12.410;2023-03-01T03:13:26;17.25;;;13.85;;
70416;SDS011;57839;51.332;12.410;2023-03-01T03:15:56;22.42;;;15.55;;
70416;SDS011;57839;51.332;12.410;2023-03-01T03:18:22;23.48;;;15.50;;
70416;SDS011;57839;51.332;12.410;2023-03-01T03:20:50;21.10;;;14.80;;
70416;SDS011;57839;51.332;12.410;2023-03-01T03:23:18;22.15;;;16.08;;
70416;SDS011;57839;51.332;12.410;2023-03-01T03:25:47;18.92;;;13.90;;
70416;SDS011;57839;51.332;12.410;2023-03-01T03:28:16;19.52;;;14.98;;
70416;SDS011;57839;51.332;12.410;2023-03-01T03:30:43;17.80;;;13.32;;
70416;SDS011;57839;51.332;12.410;2023-03-01T03:33:11;22.92;;;16.33;;
70416;SDS011;57839;51.332;12.410;2023-03-01T03:35:42;19.15;;;14.55;;
70416;SDS011;57839;51.332;12.410;2023-03-01T03:38:12;18.42;;;14.50;;
70416;SDS011;57839;51.332;12.410;2023-03-01T03:40:45;19.08;;;14.60;;
70416;SDS011;57839;51.332;12.410;2023-03-01T03:43:13;20.80;;;14.75;;
70416;SDS011;57839;51.332;12.410;2023-03-01T03:45:40;18.85;;;13.75;;
70416;SDS011;57839;51.332;12.410;2023-03-01T03:48:08;20.52;;;14.55;;
70416;SDS011;57839;51.332;12.410;2023-03-01T03:50:35;37.40;;;24.05;;
70416;SDS011;57839;51.332;12.410;2023-03-01T03:53:02;24.63;;;17.23;;
70416;SDS011;57839;51.332;12.410;2023-03-01T03:55:30;20.35;;;15.70;;
70416;SDS011;57839;51.332;12.410;2023-03-01T03:58:00;20.10;;;14.88;;
70416;SDS011;57839;51.332;12.410;2023-03-01T04:00:32;18.42;;;14.00;;
70416;SDS011;57839;51.332;12.410;2023-03-01T04:02:59;20.38;;;14.60;;
70416;SDS011;57839;51.332;12.410;2023-03-01T04:05:25;21.23;;;14.95;;
70416;SDS011;57839;51.332;12.410;2023-03-01T04:07:51;20.95;;;14.15;;
70416;SDS011;57839;51.332;12.410;2023-03-01T04:10:42;26.48;;;18.25;;
70416;SDS011;57839;51.332;12.410;2023-03-01T04:13:11;25.00;;;15.80;;
70416;SDS011;57839;51.332;12.410;2023-03-01T04:15:38;20.92;;;15.50;;
70416;SDS011;57839;51.332;12.410;2023-03-01T04:18:04;32.28;;;21.63;;
70416;SDS011;57839;51.332;12.410;2023-03-01T04:20:31;23.23;;;16.38;;
70416;SDS011;57839;51.332;12.410;2023-03-01T04:23:06;20.27;;;15.07;;
70416;SDS011;57839;51.332;12.410;2023-03-01T04:25:41;19.55;;;14.35;;
70416;SDS011;57839;51.332;12.410;2023-03-01T04:28:22;19.17;;;13.43;;
70416;SDS011;57839;51.332;12.410;2023-03-01T04:30:50;23.73;;;15.35;;
70416;SDS011;57839;51.332;12.410;2023-03-01T04:33:16;19.20;;;14.07;;
70416;SDS011;57839;51.332;12.410;2023-03-01T04:35:41;36.28;;;23.15;;
70416;SDS011;57839;51.332;12.410;2023-03-01T04:38:07;26.75;;;17.25;;
70416;SDS011;57839;51.332;12.410;2023-03-01T04:40:33;19.67;;;14.90;;
70416;SDS011;57839;51.332;12.410;2023-03-01T04:43:00;22.02;;;14.77;;
70416;SDS011;57839;51.332;12.410;2023-03-01T04:45:26;18.80;;;13.85;;
70416;SDS011;57839;51.332;12.410;2023-03-01T04:47:52;20.70;;;14.30;;
70416;SDS011;57839;51.332;12.410;2023-03-01T04:50:17;43.88;;;26.98;;
70416;SDS011;57839;51.332;12.410;2023-03-01T04:52:46;33.08;;;22.95;;
70416;SDS011;57839;51.332;12.410;2023-03-01T04:55:12;24.92;;;17.75;;
70416;SDS011;57839;51.332;12.410;2023-03-01T04:57:38;22.13;;;15.57;;
70416;SDS011;57839;51.332;12.410;2023-03-01T05:00:04;21.90;;;16.13;;
70416;SDS011;57839;51.332;12.410;2023-03-01T05:02:52;19.63;;;14.80;;
70416;SDS011;57839;51.332;12.410;2023-03-01T05:05:40;20.67;;;14.30;;
70416;SDS011;57839;51.332;12.410;2023-03-01T05:08:06;21.95;;;14.77;;
70416;SDS011;57839;51.332;12.410;2023-03-01T05:10:33;20.73;;;15.65;;
70416;SDS011;57839;51.332;12.410;2023-03-01T05:13:00;24.38;;;16.15;;
70416;SDS011;57839;51.332;12.410;2023-03-01T05:15:27;21.90;;;14.77;;
70416;SDS011;57839;51.332;12.410;2023-03-01T05:17:54;21.55;;;15.55;;
70416;SDS011;57839;51.332;12.410;2023-03-01T05:20:23;20.05;;;15.68;;
70416;SDS011;57839;51.332;12.410;2023-03-01T05:22:50;22.13;;;15.48;;
70416;SDS011;57839;51.332;12.410;2023-03-01T05:25:20;21.70;;;15.27;;
70416;SDS011;57839;51.332;12.410;2023-03-01T05:27:46;22.48;;;16.08;;
70416;SDS011;57839;51.332;12.410;2023-03-01T05:30:12;22.83;;;16.50;;
70416;SDS011;57839;51.332;12.410;2023-03-01T05:32:46;22.00;;;15.18;;
70416;SDS011;57839;51.332;12.410;2023-03-01T05:35:13;21.52;;;15.13;;
70416;SDS011;57839;51.332;12.410;2023-03-01T05:37:43;20.10;;;14.70;;
70416;SDS011;57839;51.332;12.410;2023-03-01T05:40:11;22.70;;;16.00;;
70416;SDS011;57839;51.332;12.410;2023-03-01T05:42:42;20.65;;;15.38;;
70416;SDS011;57839;51.332;12.410;2023-03-01T05:45:08;20.10;;;14.63;;
70416;SDS011;57839;51.332;12.410;2023-03-01T05:47:34;22.17;;;17.25;;
70416;SDS011;57839;51.332;12.410;2023-03-01T05:50:00;21.25;;;16.10;;
70416;SDS011;57839;51.332;12.410;2023-03-01T05:52:26;24.27;;;17.40;;
70416;SDS011;57839;51.332;12.410;2023-03-01T05:54:52;19.58;;;14.43;;
70416;SDS011;57839;51.332;12.410;2023-03-01T05:57:17;21.48;;;14.68;;
70416;SDS011;57839;51.332;12.410;2023-03-01T05:59:43;28.35;;;18.13;;
70416;SDS011;57839;51.332;12.410;2023-03-01T06:02:08;24.80;;;17.17;;
70416;SDS011;57839;51.332;12.410;2023-03-01T06:04:34;25.85;;;16.10;;
70416;SDS011;57839;51.332;12.410;2023-03-01T06:06:59;31.88;;;19.27;;
70416;SDS011;57839;51.332;12.410;2023-03-01T06:09:25;27.70;;;17.27;;
70416;SDS011;57839;51.332;12.410;2023-03-01T06:11:51;26.17;;;17.48;;
70416;SDS011;57839;51.332;12.410;2023-03-01T06:14:16;27.98;;;18.65;;
70416;SDS011;57839;51.332;12.410;2023-03-01T06:16:42;28.13;;;18.33;;
70416;SDS011;57839;51.332;12.410;2023-03-01T06:19:07;31.42;;;18.50;;
70416;SDS011;57839;51.332;12.410;2023-03-01T06:21:33;28.48;;;17.98;;
70416;SDS011;57839;51.332;12.410;2023-03-01T06:23:58;30.58;;;18.65;;
70416;SDS011;57839;51.332;12.410;2023-03-01T06:26:24;25.02;;;16.85;;
70416;SDS011;57839;51.332;12.410;2023-03-01T06:28:50;23.98;;;16.90;;
70416;SDS011;57839;51.332;12.410;2023-03-01T06:31:15;24.20;;;16.98;;
70416;SDS011;57839;51.332;12.410;2023-03-01T06:33:41;24.20;;;17.55;;
70416;SDS011;57839;51.332;12.410;2023-03-01T06:36:07;27.02;;;17.33;;
70416;SDS011;57839;51.332;12.410;2023-03-01T06:38:33;30.25;;;18.58;;
70416;SDS011;57839;51.332;12.410;2023-03-01T06:40:58;24.77;;;17.23;;
70416;SDS011;57839;51.332;12.410;2023-03-01T06:43:24;25.92;;;17.33;;
70416;SDS011;57839;51.332;12.410;2023-03-01T06:45:50;23.92;;;18.25;;
70416;SDS011;57839;51.332;12.410;2023-03-01T06:48:15;26.02;;;17.73;;
70416;SDS011;57839;51.332;12.410;2023-03-01T06:50:41;27.33;;;16.90;;
70416;SDS011;57839;51.332;12.410;2023-03-01T06:53:07;23.15;;;16.83;;
70416;SDS011;57839;51.332;12.410;2023-03-01T06:55:32;28.30;;;16.95;;
70416;SDS011;57839;51.332;12.410;2023-03-01T06:57:58;26.02;;;17.17;;
70416;SDS011;57839;51.332;12.410;2023-03-01T07:00:25;30.45;;;18.90;;
70416;SDS011;57839;51.332;12.410;2023-03-01T07:02:51;26.88;;;18.98;;
70416;SDS011;57839;51.332;12.410;2023-03-01T07:05:17;33.72;;;19.73;;
70416;SDS011;57839;51.332;12.410;2023-03-01T07:07:42;36.63;;;20.50;;
70416;SDS011;57839;51.332;12.410;2023-03-01T07:10:08;28.13;;;18.05;;
70416;SDS011;57839;51.332;12.410;2023-03-01T07:12:35;25.88;;;16.92;;
70416;SDS011;57839;51.332;12.410;2023-03-01T07:15:01;28.67;;;18.00;;
70416;SDS011;57839;51.332;12.410;2023-03-01T07:17:27;30.20;;;17.05;;
70416;SDS011;57839;51.332;12.410;2023-03-01T07:19:52;28.27;;;17.52;;
70416;SDS011;57839;51.332;12.410;2023-03-01T07:22:18;28.83;;;17.50;;
70416;SDS011;57839;51.332;12.410;2023-03-01T07:24:44;24.52;;;16.77;;
70416;SDS011;57839;51.332;12.410;2023-03-01T07:27:10;26.17;;;17.02;;
70416;SDS011;57839;51.332;12.410;2023-03-01T07:29:36;27.35;;;18.15;;
70416;SDS011;57839;51.332;12.410;2023-03-01T07:32:02;24.25;;;16.45;;
70416;SDS011;57839;51.332;12.410;2023-03-01T07:34:28;25.95;;;17.00;;
70416;SDS011;57839;51.332;12.410;2023-03-01T07:36:54;26.40;;;16.30;;
70416;SDS011;57839;51.332;12.410;2023-03-01T07:39:20;26.85;;;18.13;;
70416;SDS011;57839;51.332;12.410;2023-03-01T07:41:45;31.30;;;18.27;;
70416;SDS011;57839;51.332;12.410;2023-03-01T07:44:11;30.42;;;19.00;;
70416;SDS011;57839;51.332;12.410;2023-03-01T07:46:37;22.88;;;17.02;;
70416;SDS011;57839;51.332;12.410;2023-03-01T07:49:02;30.52;;;17.63;;
70416;SDS011;57839;51.332;12.410;2023-03-01T07:51:28;24.27;;;16.25;;
70416;SDS011;57839;51.332;12.410;2023-03-01T07:53:53;26.85;;;17.25;;
70416;SDS011;57839;51.332;12.410;2023-03-01T07:56:19;31.80;;;19.15;;
70416;SDS011;57839;51.332;12.410;2023-03-01T07:58:46;25.08;;;18.85;;
70416;SDS011;57839;51.332;12.410;2023-03-01T08:01:13;23.20;;;17.30;;
70416;SDS011;57839;51.332;12.410;2023-03-01T08:03:40;25.15;;;17.48;;
70416;SDS011;57839;51.332;12.410;2023-03-01T08:06:06;26.48;;;17.98;;
70416;SDS011;57839;51.332;12.410;2023-03-01T08:08:34;25.70;;;17.42;;
70416;SDS011;57839;51.332;12.410;2023-03-01T08:11:00;24.58;;;18.15;;
70416;SDS011;57839;51.332;12.410;2023-03-01T08:13:27;27.92;;;19.17;;
70416;SDS011;57839;51.332;12.410;2023-03-01T08:15:53;24.05;;;17.85;;
70416;SDS011;57839;51.332;12.410;2023-03-01T08:18:19;25.30;;;17.25;;
70416;SDS011;57839;51.332;12.410;2023-03-01T08:20:45;24.98;;;17.85;;
70416;SDS011;57839;51.332;12.410;2023-03-01T08:23:11;26.48;;;18.27;;
70416;SDS011;57839;51.332;12.410;2023-03-01T08:25:37;25.08;;;17.80;;
70416;SDS011;57839;51.332;12.410;2023-03-01T08:28:03;25.88;;;17.98;;
70416;SDS011;57839;51.332;12.410;2023-03-01T08:30:29;24.63;;;17.67;;
70416;SDS011;57839;51.332;12.410;2023-03-01T08:32:55;27.02;;;18.48;;
70416;SDS011;57839;51.332;12.410;2023-03-01T08:35:21;25.58;;;18.08;;
70416;SDS011;57839;51.332;12.410;2023-03-01T08:37:47;25.83;;;18.02;;
70416;SDS011;57839;51.332;12.410;2023-03-01T08:40:13;23.70;;;17.17;;
70416;SDS011;57839;51.332;12.410;2023-03-01T08:42:39;28.67;;;17.85;;
70416;SDS011;57839;51.332;12.410;2023-03-01T08:45:09;24.20;;;17.02;;
70416;SDS011;57839;51.332;12.410;2023-03-01T08:47:35;27.63;;;17.58;;
70416;SDS011;57839;51.332;12.410;2023-03-01T08:50:02;28.88;;;18.20;;
70416;SDS011;57839;51.332;12.410;2023-03-01T08:52:28;25.70;;;17.30;;
70416;SDS011;57839;51.332;12.410;2023-03-01T08:54:55;27.30;;;17.42;;
70416;SDS011;57839;51.332;12.410;2023-03-01T08:57:21;26.02;;;16.40;;
70416;SDS011;57839;51.332;12.410;2023-03-01T08:59:46;25.95;;;16.33;;
70416;SDS011;57839;51.332;12.410;2023-03-01T09:02:13;26.73;;;17.02;;
70416;SDS011;57839;51.332;12.410;2023-03-01T09:04:40;27.95;;;16.55;;
70416;SDS011;57839;51.332;12.410;2023-03-01T09:07:06;25.50;;;16.85;;
70416;SDS011;57839;51.332;12.410;2023-03-01T09:09:32;26.70;;;15.93;;
70416;SDS011;57839;51.332;12.410;2023-03-01T09:11:57;25.27;;;15.40;;
70416;SDS011;57839;51.332;12.410;2023-03-01T09:14:23;26.23;;;16.35;;
70416;SDS011;57839;51.332;12.410;2023-03-01T09:16:49;28.02;;;16.17;;
70416;SDS011;57839;51.332;12.410;2023-03-01T09:19:14;25.17;;;17.02;;
70416;SDS011;57839;51.332;12.410;2023-03-01T09:21:40;23.45;;;15.10;;
70416;SDS011;57839;51.332;12.410;2023-03-01T09:24:15;24.45;;;16.30;;
70416;SDS011;57839;51.332;12.410;2023-03-01T09:26:40;26.02;;;15.60;;
70416;SDS011;57839;51.332;12.410;2023-03-01T09:29:07;27.02;;;16.35;;
70416;SDS011;57839;51.332;12.410;2023-03-01T09:31:34;25.38;;;16.60;;
70416;SDS011;57839;51.332;12.410;2023-03-01T09:34:00;24.80;;;16.30;;
70416;SDS011;57839;51.332;12.410;2023-03-01T09:36:25;22.75;;;15.20;;
70416;SDS011;57839;51.332;12.410;2023-03-01T09:38:51;25.75;;;17.25;;
70416;SDS011;57839;51.332;12.410;2023-03-01T09:44:03;23.95;;;15.85;;
70416;SDS011;57839;51.332;12.410;2023-03-01T09:46:37;23.88;;;16.77;;
70416;SDS011;57839;51.332;12.410;2023-03-01T09:49:10;23.83;;;16.10;;
70416;SDS011;57839;51.332;12.410;2023-03-01T09:51:42;24.85;;;16.65;;
70416;SDS011;57839;51.332;12.410;2023-03-01T09:54:08;23.65;;;16.52;;
70416;SDS011;57839;51.332;12.410;2023-03-01T09:56:46;25.02;;;17.00;;
70416;SDS011;57839;51.332;12.410;2023-03-01T09:59:23;24.88;;;16.45;;
70416;SDS011;57839;51.332;12.410;2023-03-01T10:02:00;25.90;;;15.75;;
70416;SDS011;57839;51.332;12.410;2023-03-01T10:04:46;24.13;;;16.05;;
70416;SDS011;57839;51.332;12.410;2023-03-01T10:10:55;26.20;;;16.75;;
70416;SDS011;57839;51.332;12.410;2023-03-01T10:13:13;23.73;;;16.27;;
70416;SDS011;57839;51.332;12.410;2023-03-01T10:16:26;22.55;;;15.63;;
70416;SDS011;57839;51.332;12.410;2023-03-01T10:18:36;23.83;;;16.75;;
70416;SDS011;57839;51.332;12.410;2023-03-01T10:21:08;21.70;;;15.40;;
70416;SDS011;57839;51.332;12.410;2023-03-01T10:23:38;23.10;;;14.82;;
70416;SDS011;57839;51.332;12.410;2023-03-01T10:31:29;18.90;;;14.77;;
70416;SDS011;57839;51.332;12.410;2023-03-01T10:36:56;22.10;;;14.63;;
70416;SDS011;57839;51.332;12.410;2023-03-01T10:39:24;21.42;;;14.55;;
70416;SDS011;57839;51.332;12.410;2023-03-01T10:41:58;22.45;;;14.65;;
70416;SDS011;57839;51.332;12.410;2023-03-01T10:44:49;24.58;;;14.50;;
70416;SDS011;57839;51.332;12.410;2023-03-01T10:47:19;19.85;;;15.57;;
70416;SDS011;57839;51.332;12.410;2023-03-01T10:49:56;21.88;;;14.30;;
70416;SDS011;57839;51.332;12.410;2023-03-01T10:52:33;19.88;;;14.35;;
70416;SDS011;57839;51.332;12.410;2023-03-01T10:57:49;20.02;;;14.38;;
70416;SDS011;57839;51.332;12.410;2023-03-01T11:02:47;17.13;;;13.32;;
70416;SDS011;57839;51.332;12.410;2023-03-01T11:05:33;19.52;;;14.02;;
70416;SDS011;57839;51.332;12.410;2023-03-01T11:08:00;16.33;;;13.02;;
70416;SDS011;57839;51.332;12.410;2023-03-01T11:10:35;16.05;;;12.40;;
70416;SDS011;57839;51.332;12.410;2023-03-01T11:18:40;15.85;;;12.65;;
70416;SDS011;57839;51.332;12.410;2023-03-01T11:21:06;20.30;;;14.82;;
70416;SDS011;57839;51.332;12.410;2023-03-01T11:23:33;17.65;;;13.60;;
70416;SDS011;57839;51.332;12.410;2023-03-01T11:26:01;21.02;;;14.70;;
70416;SDS011;57839;51.332;12.410;2023-03-01T11:28:30;19.25;;;14.20;;
70416;SDS011;57839;51.332;12.410;2023-03-01T11:30:57;21.25;;;16.63;;
70416;SDS011;57839;51.332;12.410;2023-03-01T11:36:03;19.95;;;15.73;;
70416;SDS011;57839;51.332;12.410;2023-03-01T11:38:40;18.23;;;14.57;;
70416;SDS011;57839;51.332;12.410;2023-03-01T11:41:08;21.17;;;15.35;;
70416;SDS011;57839;51.332;12.410;2023-03-01T11:51:32;21.20;;;16.20;;
70416;SDS011;57839;51.332;12.410;2023-03-01T11:54:26;20.30;;;16.70;;
70416;SDS011;57839;51.332;12.410;2023-03-01T11:56:57;21.55;;;15.80;;
70416;SDS011;57839;51.332;12.410;2023-03-01T12:13:04;23.13;;;15.73;;
70416;SDS011;57839;51.332;12.410;2023-03-01T12:15:42;21.15;;;14.88;;
70416;SDS011;57839;51.332;12.410;2023-03-01T12:18:18;22.42;;;15.32;;
70416;SDS011;57839;51.332;12.410;2023-03-01T12:27:13;19.13;;;13.70;;
70416;SDS011;57839;51.332;12.410;2023-03-01T12:32:43;17.73;;;13.32;;
70416;SDS011;57839;51.332;12.410;2023-03-01T12:48:56;17.42;;;12.43;;
70416;SDS011;57839;51.332;12.410;2023-03-01T12:51:51;17.27;;;12.25;;
70416;SDS011;57839;51.332;12.410;2023-03-01T12:56:52;18.13;;;13.00;;
70416;SDS011;57839;51.332;12.410;2023-03-01T12:59:21;18.05;;;12.70;;
70416;SDS011;57839;51.332;12.410;2023-03-01T13:02:05;15.85;;;12.65;;
70416;SDS011;57839;51.332;12.410;2023-03-01T13:05:14;17.42;;;12.73;;
70416;SDS011;57839;51.332;12.410;2023-03-01T13:08:01;18.17;;;14.00;;
70416;SDS011;57839;51.332;12.410;2023-03-01T13:10:48;17.50;;;12.55;;
70416;SDS011;57839;51.332;12.410;2023-03-01T13:13:20;19.02;;;13.65;;
70416;SDS011;57839;51.332;12.410;2023-03-01T13:15:48;19.40;;;12.90;;
70416;SDS011;57839;51.332;12.410;2023-03-01T13:20:51;19.17;;;13.45;;
70416;SDS011;57839;51.332;12.410;2023-03-01T13:30:57;18.80;;;13.73;;
70416;SDS011;57839;51.332;12.410;2023-03-01T13:35:49;21.95;;;13.48;;
70416;SDS011;57839;51.332;12.410;2023-03-01T13:41:16;17.13;;;13.20;;
70416;SDS011;57839;51.332;12.410;2023-03-01T13:43:46;20.02;;;13.70;;
70416;SDS011;57839;51.332;12.410;2023-03-01T13:46:21;20.65;;;13.70;;
70416;SDS011;57839;51.332;12.410;2023-03-01T13:48:52;21.90;;;14.10;;
70416;SDS011;57839;51.332;12.410;2023-03-01T13:51:24;17.73;;;13.45;;
70416;SDS011;57839;51.332;12.410;2023-03-01T13:53:51;17.90;;;12.82;;
70416;SDS011;57839;51.332;12.410;2023-03-01T13:56:20;19.80;;;13.85;;
70416;SDS011;57839;51.332;12.410;2023-03-01T14:01:26;16.77;;;12.98;;
70416;SDS011;57839;51.332;12.410;2023-03-01T14:03:56;17.52;;;12.93;;
70416;SDS011;57839;51.332;12.410;2023-03-01T14:06:23;18.77;;;12.90;;
70416;SDS011;57839;51.332;12.410;2023-03-01T14:12:23;19.10;;;13.10;;
70416;SDS011;57839;51.332;12.410;2023-03-01T14:14:48;37.78;;;23.40;;
70416;SDS011;57839;51.332;12.410;2023-03-01T14:20:26;16.17;;;11.40;;
70416;SDS011;57839;51.332;12.410;2023-03-01T14:22:53;17.48;;;12.48;;
70416;SDS011;57839;51.332;12.410;2023-03-01T14:25:22;13.32;;;10.38;;
70416;SDS011;57839;51.332;12.410;2023-03-01T14:27:51;19.23;;;10.30;;
70416;SDS011;57839;51.332;12.410;2023-03-01T14:30:23;16.15;;;9.98;;
70416;SDS011;57839;51.332;12.410;2023-03-01T14:32:57;15.88;;;10.27;;
70416;SDS011;57839;51.332;12.410;2023-03-01T14:35:25;12.85;;;9.90;;
70416;SDS011;57839;51.332;12.410;2023-03-01T14:37:55;15.43;;;9.80;;
70416;SDS011;57839;51.332;12.410;2023-03-01T14:42:53;13.27;;;9.25;;
70416;SDS011;57839;51.332;12.410;2023-03-01T14:45:20;13.85;;;9.60;;
70416;SDS011;57839;51.332;12.410;2023-03-01T14:47:46;11.95;;;9.00;;
70416;SDS011;57839;51.332;12.410;2023-03-01T14:50:26;14.63;;;8.88;;
70416;SDS011;57839;51.332;12.410;2023-03-01T14:52:56;12.90;;;9.02;;
70416;SDS011;57839;51.332;12.410;2023-03-01T14:57:52;22.33;;;13.00;;
70416;SDS011;57839;51.332;12.410;2023-03-01T15:00:20;14.18;;;9.35;;
70416;SDS011;57839;51.332;12.410;2023-03-01T15:02:48;14.30;;;9.75;;
70416;SDS011;57839;51.332;12.410;2023-03-01T15:05:14;11.75;;;8.90;;
70416;SDS011;57839;51.332;12.410;2023-03-01T15:07:42;15.65;;;9.45;;
70416;SDS011;57839;51.332;12.410;2023-03-01T15:10:21;12.75;;;9.15;;
70416;SDS011;57839;51.332;12.410;2023-03-01T15:12:48;13.07;;;8.55;;
70416;SDS011;57839;51.332;12.410;2023-03-01T15:18:01;14.27;;;9.05;;
70416;SDS011;57839;51.332;12.410;2023-03-01T15:20:29;11.68;;;9.07;;
70416;SDS011;57839;51.332;12.410;2023-03-01T15:22:57;14.15;;;9.18;;
70416;SDS011;57839;51.332;12.410;2023-03-01T15:25:24;13.50;;;9.32;;
70416;SDS011;57839;51.332;12.410;2023-03-01T15:27:52;11.93;;;7.78;;
70416;SDS011;57839;51.332;12.410;2023-03-01T15:30:21;11.98;;;8.52;;
70416;SDS011;57839;51.332;12.410;2023-03-01T15:32:48;12.10;;;8.00;;
70416;SDS011;57839;51.332;12.410;2023-03-01T15:41:23;11.32;;;8.25;;
70416;SDS011;57839;51.332;12.410;2023-03-01T15:43:50;11.45;;;8.25;;
70416;SDS011;57839;51.332;12.410;2023-03-01T15:48:52;10.45;;;7.40;;
70416;SDS011;57839;51.332;12.410;2023-03-01T15:51:54;11.23;;;7.63;;
70416;SDS011;57839;51.332;12.410;2023-03-01T15:54:20;12.98;;;8.07;;
70416;SDS011;57839;51.332;12.410;2023-03-01T15:56:47;10.75;;;7.90;;
70416;SDS011;57839;51.332;12.410;2023-03-01T15:59:13;14.57;;;8.35;;
70416;SDS011;57839;51.332;12.410;2023-03-01T16:01:42;11.85;;;8.43;;
70416;SDS011;57839;51.332;12.410;2023-03-01T16:04:14;13.32;;;9.02;;
70416;SDS011;57839;51.332;12.410;2023-03-01T16:06:48;12.80;;;8.75;;
70416;SDS011;57839;51.332;12.410;2023-03-01T16:09:25;14.18;;;9.68;;
70416;SDS011;57839;51.332;12.410;2023-03-01T16:11:52;13.43;;;8.57;;
70416;SDS011;57839;51.332;12.410;2023-03-01T16:14:18;12.85;;;8.25;;
70416;SDS011;57839;51.332;12.410;2023-03-01T16:16:44;13.52;;;8.18;;
70416;SDS011;57839;51.332;12.410;2023-03-01T16:19:10;12.50;;;8.52;;
70416;SDS011;57839;51.332;12.410;2023-03-01T16:21:36;12.88;;;8.25;;
70416;SDS011;57839;51.332;12.410;2023-03-01T16:24:03;12.50;;;8.15;;